createdAt,value
2023-02-07T00:03:13.592Z,102350.34
2023-02-07T00:08:16.465Z,102360.00
2023-02-07T00:13:19.005Z,102354.06
2023-02-07T00:18:21.476Z,102357.66
2023-02-07T00:23:23.921Z,102353.91
2023-02-07T00:28:26.708Z,102344.56
2023-02-07T00:33:29.236Z,102335.56
2023-02-07T00:38:32.084Z,102330.50
2023-02-07T00:43:35.007Z,102335.22
2023-02-07T00:48:39.636Z,102346.75
2023-02-07T00:53:45.179Z,102342.00
2023-02-07T00:58:49.512Z,102345.88
2023-02-07T01:03:53.702Z,102358.06
2023-02-07T01:09:00.644Z,102354.88
2023-02-07T01:14:05.948Z,102357.56
2023-02-07T01:19:10.768Z,102359.97
2023-02-07T01:24:13.429Z,102372.16
2023-02-07T01:29:16.362Z,102368.25
2023-02-07T01:34:18.861Z,102367.56
2023-02-07T01:39:22.592Z,102383.13
2023-02-07T01:44:24.979Z,102382.47
2023-02-07T01:49:31.921Z,102387.78
2023-02-07T01:54:36.884Z,102392.09
2023-02-07T01:59:44.182Z,102389.16
2023-02-07T02:04:46.869Z,102379.75
2023-02-07T02:09:49.320Z,102374.78
2023-02-07T02:15:10.368Z,102387.16
2023-02-07T02:20:54.433Z,102378.06
2023-02-07T02:25:58.210Z,102378.72
2023-02-07T02:31:00.654Z,102382.09
2023-02-07T02:36:05.679Z,102364.09
2023-02-07T02:41:35.676Z,102355.28
2023-02-07T02:46:41.762Z,102352.44
2023-02-07T02:51:44.755Z,102364.53
2023-02-07T02:56:48.232Z,102374.69
2023-02-07T03:02:26.380Z,102364.75
2023-02-07T03:08:06.284Z,102360.13
2023-02-07T03:13:30.430Z,102363.34
2023-02-07T03:18:53.981Z,102366.59
2023-02-07T03:23:59.624Z,102353.81
2023-02-07T03:29:06.600Z,102353.66
2023-02-07T03:34:16.783Z,102370.81
2023-02-07T03:39:19.514Z,102364.00
2023-02-07T03:44:25.694Z,102361.69
2023-02-07T03:49:28.202Z,102379.84
2023-02-07T03:54:30.661Z,102374.09
2023-02-07T03:59:33.244Z,102380.03
2023-02-07T04:04:36.492Z,102383.38
2023-02-07T04:09:38.815Z,102394.63
2023-02-07T04:14:41.292Z,102380.72
2023-02-07T04:19:43.731Z,102397.47
2023-02-07T04:24:46.775Z,102392.75
2023-02-07T04:29:49.241Z,102392.06
2023-02-07T04:34:51.576Z,102393.28
2023-02-07T04:39:54.024Z,102389.38
2023-02-07T04:44:56.462Z,102392.09
2023-02-07T04:49:58.890Z,102402.41
2023-02-07T04:55:01.333Z,102399.50
2023-02-07T05:00:04.895Z,102407.66
2023-02-07T05:05:08.045Z,102416.13
2023-02-07T05:10:10.673Z,102406.41
2023-02-07T05:15:13.051Z,102401.97
2023-02-07T05:20:15.622Z,102408.06
2023-02-07T05:25:18.475Z,102423.81
2023-02-07T05:30:21.469Z,102424.19
2023-02-07T05:35:23.958Z,102433.69
2023-02-07T05:40:26.409Z,102429.88
2023-02-07T05:45:29.156Z,102426.00
2023-02-07T05:50:32.044Z,102445.34
2023-02-07T05:55:41.590Z,102428.13
2023-02-07T06:00:44.244Z,102439.56
2023-02-07T06:05:46.652Z,102445.47
2023-02-07T06:10:49.840Z,102446.81
2023-02-07T06:15:53.349Z,102464.16
2023-02-07T06:20:56.423Z,102458.91
2023-02-07T06:25:58.829Z,102453.41
2023-02-07T06:31:01.436Z,102440.84
2023-02-07T06:36:04.293Z,102435.06
2023-02-07T06:41:11.226Z,102457.09
2023-02-07T06:46:13.962Z,102465.69
2023-02-07T06:51:16.517Z,102465.88
2023-02-07T06:56:19.079Z,102461.91
2023-02-07T07:01:22.660Z,102453.47
2023-02-07T07:06:25.194Z,102457.31
2023-02-07T07:11:27.646Z,102468.91
2023-02-07T07:16:30.138Z,102457.28
2023-02-07T07:21:32.941Z,102463.31
2023-02-07T07:26:48.437Z,102476.50
2023-02-07T07:31:52.154Z,102470.97
2023-02-07T07:36:57.008Z,102459.97
2023-02-07T07:41:59.901Z,102494.09
2023-02-07T07:47:20.982Z,102491.88
2023-02-07T07:52:23.563Z,102492.50
2023-02-07T07:57:28.478Z,102498.63
2023-02-07T08:02:30.928Z,102494.09
2023-02-07T08:07:33.495Z,102490.16
2023-02-07T08:12:36.075Z,102515.69
2023-02-07T08:17:38.612Z,102494.72
2023-02-07T08:22:41.185Z,102495.38
2023-02-07T08:27:43.847Z,102483.03
2023-02-07T08:32:47.400Z,102486.63
2023-02-07T08:37:50.521Z,102472.00
2023-02-07T08:42:53.181Z,102459.91
2023-02-07T08:47:55.654Z,102465.25
2023-02-07T08:52:58.312Z,102464.38
2023-02-07T08:58:00.749Z,102456.91
2023-02-07T09:03:04.515Z,102455.06
2023-02-07T09:08:07.128Z,102451.88
2023-02-07T09:13:09.700Z,102465.19
2023-02-07T09:18:12.209Z,102470.06
2023-02-07T09:23:20.576Z,102466.19
2023-02-07T09:28:23.254Z,102479.44
2023-02-07T09:33:26.278Z,102477.47
2023-02-07T09:38:29.024Z,102455.69
2023-02-07T09:44:00.317Z,102459.22
2023-02-07T09:49:37.870Z,102474.78
2023-02-07T09:54:44.027Z,102466.13
2023-02-07T09:59:50.914Z,102440.97
2023-02-07T10:04:59.180Z,102458.81
2023-02-07T10:10:01.786Z,102424.44
2023-02-07T10:15:20.165Z,102442.00
2023-02-07T10:20:40.653Z,102427.75
2023-02-07T10:26:12.019Z,102430.13
2023-02-07T10:31:17.782Z,102410.38
2023-02-07T10:36:20.765Z,102414.94
2023-02-07T10:41:31.190Z,102412.66
2023-02-07T10:46:35.849Z,102415.88
2023-02-07T10:51:44.516Z,102410.41
2023-02-07T10:56:49.024Z,102415.72
2023-02-07T11:01:54.579Z,102425.41
2023-02-07T11:07:00.783Z,102435.25
2023-02-07T11:12:15.570Z,102416.84
2023-02-07T11:17:22.059Z,102424.31
2023-02-07T11:22:28.233Z,102423.19
2023-02-07T11:27:41.307Z,102410.59
2023-02-07T11:32:44.825Z,102411.88
2023-02-07T11:37:49.512Z,102423.91
2023-02-07T11:43:10.095Z,102422.25
2023-02-07T11:48:31.225Z,102445.22
2023-02-07T11:54:05.895Z,102437.44
2023-02-07T11:59:18.595Z,102448.53
2023-02-07T12:04:27.819Z,102448.19
2023-02-07T12:09:40.092Z,102450.56
2023-02-07T12:15:02.358Z,102451.56
2023-02-07T12:20:29.334Z,102448.06
2023-02-07T12:25:57.145Z,102467.53
2023-02-07T12:31:06.574Z,102474.41
2023-02-07T12:36:19.980Z,102448.34
2023-02-07T12:41:41.383Z,102456.75
2023-02-07T12:47:05.560Z,102466.63
2023-02-07T12:52:46.262Z,102473.75
2023-02-07T12:58:06.546Z,102473.56
2023-02-07T13:03:33.291Z,102463.06
2023-02-07T13:08:55.370Z,102466.06
2023-02-07T13:14:09.553Z,102453.31
2023-02-07T13:19:29.081Z,102454.91
2023-02-07T13:24:33.384Z,102461.13
2023-02-07T13:29:37.853Z,102467.16
2023-02-07T13:34:46.624Z,102466.63
2023-02-07T13:39:59.042Z,102478.03
2023-02-07T13:45:21.524Z,102499.50
2023-02-07T13:50:39.228Z,102496.47
2023-02-07T13:55:43.746Z,102502.75
2023-02-07T14:00:56.249Z,102507.84
2023-02-07T14:06:17.287Z,102513.41
2023-02-07T14:11:44.491Z,102520.13
2023-02-07T14:16:56.280Z,102527.00
2023-02-07T14:22:20.913Z,102533.22
2023-02-07T14:27:34.864Z,102545.16
2023-02-07T14:33:04.202Z,102540.16
2023-02-07T14:38:06.959Z,102565.91
2023-02-07T14:43:12.220Z,102564.66
2023-02-07T14:48:42.355Z,102586.06
2023-02-07T14:53:46.831Z,102604.06
2023-02-07T14:58:52.088Z,102616.72
2023-02-07T15:04:06.086Z,102631.81
2023-02-07T15:09:18.585Z,102627.97
2023-02-07T15:14:33.516Z,102644.06
2023-02-07T15:19:42.438Z,102646.09
2023-02-07T15:24:51.408Z,102640.03
2023-02-07T15:30:03.602Z,102635.63
2023-02-07T15:35:17.510Z,102657.28
2023-02-07T15:40:25.601Z,102661.56
2023-02-07T15:45:32.660Z,102677.06
2023-02-07T15:50:41.925Z,102669.28
2023-02-07T15:55:50.883Z,102664.19
2023-02-07T16:00:53.703Z,102649.56
2023-02-07T16:06:32.926Z,102657.91
2023-02-07T16:11:40.250Z,102682.56
2023-02-07T16:16:56.081Z,102684.78
2023-02-07T16:21:58.411Z,102706.72
2023-02-07T16:27:00.935Z,102673.56
2023-02-07T16:32:04.663Z,102689.88
2023-02-07T16:37:07.992Z,102677.28
2023-02-07T16:42:15.436Z,102700.03
2023-02-07T16:47:18.854Z,102695.41
2023-02-07T16:52:21.361Z,102688.81
2023-02-07T16:57:23.836Z,102697.16
2023-02-07T17:02:26.362Z,102689.84
2023-02-07T17:07:29.269Z,102711.50
2023-02-07T17:12:31.734Z,102715.03
2023-02-07T17:17:34.117Z,102733.84
2023-02-07T17:22:36.550Z,102738.59
2023-02-07T17:27:39.066Z,102731.56
2023-02-07T17:32:41.533Z,102735.63
2023-02-07T17:37:44.388Z,102748.75
2023-02-07T17:42:47.153Z,102746.84
2023-02-07T17:47:49.786Z,102753.09
2023-02-07T17:52:52.274Z,102757.81
2023-02-07T17:57:54.883Z,102764.38
2023-02-07T18:02:57.353Z,102771.22
2023-02-07T18:08:00.181Z,102772.53
2023-02-07T18:13:02.971Z,102770.13
2023-02-07T18:18:05.716Z,102768.19
2023-02-07T18:23:08.274Z,102780.06
2023-02-07T18:28:10.843Z,102781.47
2023-02-07T18:33:14.333Z,102787.19
2023-02-07T18:38:16.805Z,102793.94
2023-02-07T18:43:19.328Z,102795.09
2023-02-07T18:48:21.761Z,102804.16
2023-02-07T18:53:24.345Z,102810.91
2023-02-07T18:58:26.712Z,102805.09
2023-02-07T19:03:29.105Z,102796.41
2023-02-07T19:08:31.642Z,102796.16
2023-02-07T19:13:35.538Z,102804.69
2023-02-07T19:18:37.937Z,102796.34
2023-02-07T19:23:41.139Z,102800.50
2023-02-07T19:28:43.627Z,102811.66
2023-02-07T19:33:50.909Z,102801.16
2023-02-07T19:38:54.649Z,102795.34
2023-02-07T19:43:57.995Z,102791.56
2023-02-07T19:49:00.543Z,102795.81
2023-02-07T19:54:03.517Z,102805.75
2023-02-07T19:59:07.243Z,102815.00
2023-02-07T20:04:09.725Z,102815.91
2023-02-07T20:09:12.226Z,102823.63
2023-02-07T20:14:14.739Z,102817.66
2023-02-07T20:19:17.383Z,102821.06
2023-02-07T20:24:19.818Z,102817.94
2023-02-07T20:29:23.358Z,102834.03
2023-02-07T20:34:25.890Z,102844.63
2023-02-07T20:39:30.912Z,102841.25
2023-02-07T20:44:33.559Z,102836.84
2023-02-07T20:49:35.992Z,102830.81
2023-02-07T20:54:38.452Z,102846.75
2023-02-07T20:59:40.994Z,102831.09
2023-02-07T21:04:43.603Z,102844.94
2023-02-07T21:09:46.049Z,102839.41
2023-02-07T21:14:48.663Z,102849.09
2023-02-07T21:19:51.161Z,102867.47
2023-02-07T21:24:53.572Z,102854.97
2023-02-07T21:29:56.049Z,102878.34
2023-02-07T21:34:58.474Z,102861.53
2023-02-07T21:40:00.969Z,102874.50
2023-02-07T21:45:04.465Z,102881.06
2023-02-07T21:50:07.144Z,102878.34
2023-02-07T21:55:09.743Z,102897.97
2023-02-07T22:00:13.509Z,102884.72
2023-02-07T22:05:16.213Z,102878.19
2023-02-07T22:10:18.845Z,102891.31
2023-02-07T22:15:21.272Z,102886.91
2023-02-07T22:20:23.780Z,102894.44
2023-02-07T22:25:26.280Z,102906.00
2023-02-07T22:30:28.701Z,102905.56
2023-02-07T22:35:36.894Z,102900.16
2023-02-07T22:40:41.432Z,102910.25
2023-02-07T22:45:46.465Z,102933.47
2023-02-07T22:50:49.048Z,102928.63
2023-02-07T22:55:51.535Z,102951.84
2023-02-07T23:00:54.019Z,102948.56
2023-02-07T23:05:56.646Z,102935.16
2023-02-07T23:10:59.095Z,102940.88
2023-02-07T23:16:01.632Z,102935.16
2023-02-07T23:21:08.846Z,102941.13
2023-02-07T23:26:14.394Z,102947.97
2023-02-07T23:31:18.397Z,102945.41
2023-02-07T23:36:21.125Z,102929.31
2023-02-07T23:41:23.700Z,102934.72
2023-02-07T23:46:27.325Z,102928.31
2023-02-07T23:51:29.819Z,102937.84
2023-02-07T23:56:32.596Z,102940.25
